sensor_id;sensor_type;location;lat;lon;timestamp;P1;durP1;ratioP1;P2;durP2;ratioP2
70169;SDS011;57543;45.442;9.212;2022-08-18T00:00:03;26.35;;;16.85;;
70169;SDS011;57543;45.442;9.212;2022-08-18T00:03:08;26.73;;;15.30;;
70169;SDS011;57543;45.442;9.212;2022-08-18T00:06:13;33.10;;;21.17;;
70169;SDS011;57543;45.442;9.212;2022-08-18T00:09:16;36.85;;;21.98;;
70169;SDS011;57543;45.442;9.212;2022-08-18T00:12:25;27.27;;;16.90;;
70169;SDS011;57543;45.442;9.212;2022-08-18T00:15:30;25.23;;;16.52;;
70169;SDS011;57543;45.442;9.212;2022-08-18T00:18:33;32.35;;;18.35;;
70169;SDS011;57543;45.442;9.212;2022-08-18T00:21:37;34.72;;;21.05;;
70169;SDS011;57543;45.442;9.212;2022-08-18T00:24:45;31.40;;;20.08;;
70169;SDS011;57543;45.442;9.212;2022-08-18T00:27:50;34.08;;;20.90;;
70169;SDS011;57543;45.442;9.212;2022-08-18T00:30:54;33.97;;;19.55;;
70169;SDS011;57543;45.442;9.212;2022-08-18T00:33:58;28.37;;;16.53;;
70169;SDS011;57543;45.442;9.212;2022-08-18T00:37:02;28.80;;;16.85;;
70169;SDS011;57543;45.442;9.212;2022-08-18T00:40:07;25.58;;;16.08;;
70169;SDS011;57543;45.442;9.212;2022-08-18T00:43:35;25.17;;;15.00;;
70169;SDS011;57543;45.442;9.212;2022-08-18T00:46:44;28.65;;;17.50;;
70169;SDS011;57543;45.442;9.212;2022-08-18T00:49:49;28.42;;;17.63;;
70169;SDS011;57543;45.442;9.212;2022-08-18T00:52:55;31.25;;;20.30;;
70169;SDS011;57543;45.442;9.212;2022-08-18T00:56:07;33.50;;;19.73;;
70169;SDS011;57543;45.442;9.212;2022-08-18T01:02:36;23.75;;;14.27;;
70169;SDS011;57543;45.442;9.212;2022-08-18T01:05:47;22.50;;;13.97;;
70169;SDS011;57543;45.442;9.212;2022-08-18T01:08:56;25.55;;;15.45;;
70169;SDS011;57543;45.442;9.212;2022-08-18T01:12:00;27.67;;;14.00;;
70169;SDS011;57543;45.442;9.212;2022-08-18T01:15:04;27.10;;;16.30;;
70169;SDS011;57543;45.442;9.212;2022-08-18T01:18:10;27.08;;;15.25;;
70169;SDS011;57543;45.442;9.212;2022-08-18T01:21:35;23.35;;;13.80;;
70169;SDS011;57543;45.442;9.212;2022-08-18T01:24:53;20.73;;;13.38;;
70169;SDS011;57543;45.442;9.212;2022-08-18T01:28:17;20.38;;;12.70;;
70169;SDS011;57543;45.442;9.212;2022-08-18T01:31:34;23.42;;;13.52;;
70169;SDS011;57543;45.442;9.212;2022-08-18T01:34:41;23.30;;;12.20;;
70169;SDS011;57543;45.442;9.212;2022-08-18T01:37:45;19.65;;;10.15;;
70169;SDS011;57543;45.442;9.212;2022-08-18T01:40:48;15.52;;;9.00;;
70169;SDS011;57543;45.442;9.212;2022-08-18T01:43:53;16.20;;;8.70;;
70169;SDS011;57543;45.442;9.212;2022-08-18T01:46:56;15.40;;;7.88;;
70169;SDS011;57543;45.442;9.212;2022-08-18T01:49:59;16.63;;;8.38;;
70169;SDS011;57543;45.442;9.212;2022-08-18T01:53:03;12.13;;;6.97;;
70169;SDS011;57543;45.442;9.212;2022-08-18T01:56:07;15.27;;;8.20;;
70169;SDS011;57543;45.442;9.212;2022-08-18T01:59:11;12.90;;;7.18;;
70169;SDS011;57543;45.442;9.212;2022-08-18T02:02:17;13.10;;;7.05;;
70169;SDS011;57543;45.442;9.212;2022-08-18T02:05:29;11.43;;;6.63;;
70169;SDS011;57543;45.442;9.212;2022-08-18T02:08:37;10.80;;;5.60;;
70169;SDS011;57543;45.442;9.212;2022-08-18T02:11:41;10.50;;;5.68;;
70169;SDS011;57543;45.442;9.212;2022-08-18T02:14:44;9.15;;;5.18;;
70169;SDS011;57543;45.442;9.212;2022-08-18T02:17:48;14.73;;;6.20;;
70169;SDS011;57543;45.442;9.212;2022-08-18T02:20:52;12.95;;;6.10;;
70169;SDS011;57543;45.442;9.212;2022-08-18T02:23:56;11.57;;;5.72;;
70169;SDS011;57543;45.442;9.212;2022-08-18T02:27:00;9.82;;;5.40;;
70169;SDS011;57543;45.442;9.212;2022-08-18T02:30:08;8.50;;;4.75;;
70169;SDS011;57543;45.442;9.212;2022-08-18T02:33:15;9.15;;;4.47;;
70169;SDS011;57543;45.442;9.212;2022-08-18T02:36:19;9.90;;;5.72;;
70169;SDS011;57543;45.442;9.212;2022-08-18T02:39:24;9.73;;;4.63;;
70169;SDS011;57543;45.442;9.212;2022-08-18T02:42:28;8.35;;;4.97;;
70169;SDS011;57543;45.442;9.212;2022-08-18T02:45:37;10.68;;;5.57;;
70169;SDS011;57543;45.442;9.212;2022-08-18T02:48:41;12.38;;;5.70;;
70169;SDS011;57543;45.442;9.212;2022-08-18T02:51:45;10.45;;;5.57;;
70169;SDS011;57543;45.442;9.212;2022-08-18T02:54:49;9.37;;;5.43;;
70169;SDS011;57543;45.442;9.212;2022-08-18T02:57:53;8.48;;;4.65;;
70169;SDS011;57543;45.442;9.212;2022-08-18T03:00:57;8.95;;;4.93;;
70169;SDS011;57543;45.442;9.212;2022-08-18T03:04:01;9.10;;;4.30;;
70169;SDS011;57543;45.442;9.212;2022-08-18T03:07:06;8.90;;;4.43;;
70169;SDS011;57543;45.442;9.212;2022-08-18T03:10:10;8.90;;;3.97;;
70169;SDS011;57543;45.442;9.212;2022-08-18T03:13:17;11.25;;;4.40;;
70169;SDS011;57543;45.442;9.212;2022-08-18T03:16:21;7.63;;;4.18;;
70169;SDS011;57543;45.442;9.212;2022-08-18T03:19:27;8.02;;;4.00;;
70169;SDS011;57543;45.442;9.212;2022-08-18T03:22:31;9.32;;;4.00;;
70169;SDS011;57543;45.442;9.212;2022-08-18T03:25:41;8.85;;;3.90;;
70169;SDS011;57543;45.442;9.212;2022-08-18T03:28:47;8.60;;;4.20;;
70169;SDS011;57543;45.442;9.212;2022-08-18T03:31:53;8.15;;;4.03;;
70169;SDS011;57543;45.442;9.212;2022-08-18T03:34:57;9.40;;;4.35;;
70169;SDS011;57543;45.442;9.212;2022-08-18T03:38:02;9.60;;;3.80;;
70169;SDS011;57543;45.442;9.212;2022-08-18T03:41:06;8.93;;;3.92;;
70169;SDS011;57543;45.442;9.212;2022-08-18T03:44:17;7.72;;;4.75;;
70169;SDS011;57543;45.442;9.212;2022-08-18T03:47:21;8.53;;;3.87;;
70169;SDS011;57543;45.442;9.212;2022-08-18T03:50:25;8.10;;;3.75;;
70169;SDS011;57543;45.442;9.212;2022-08-18T03:53:30;8.57;;;4.50;;
70169;SDS011;57543;45.442;9.212;2022-08-18T03:56:37;7.07;;;3.70;;
70169;SDS011;57543;45.442;9.212;2022-08-18T03:59:41;8.05;;;3.65;;
70169;SDS011;57543;45.442;9.212;2022-08-18T04:02:45;8.10;;;4.00;;
70169;SDS011;57543;45.442;9.212;2022-08-18T04:05:49;8.50;;;4.25;;
70169;SDS011;57543;45.442;9.212;2022-08-18T04:08:53;7.38;;;3.80;;
70169;SDS011;57543;45.442;9.212;2022-08-18T04:12:03;6.57;;;3.35;;
70169;SDS011;57543;45.442;9.212;2022-08-18T04:15:14;7.10;;;3.80;;
70169;SDS011;57543;45.442;9.212;2022-08-18T04:18:18;8.37;;;3.47;;
70169;SDS011;57543;45.442;9.212;2022-08-18T04:21:22;7.80;;;3.85;;
70169;SDS011;57543;45.442;9.212;2022-08-18T04:24:26;8.55;;;3.72;;
70169;SDS011;57543;45.442;9.212;2022-08-18T04:27:31;6.28;;;3.40;;
70169;SDS011;57543;45.442;9.212;2022-08-18T04:30:35;8.50;;;3.90;;
70169;SDS011;57543;45.442;9.212;2022-08-18T04:33:39;7.53;;;3.23;;
70169;SDS011;57543;45.442;9.212;2022-08-18T04:36:44;8.13;;;3.60;;
70169;SDS011;57543;45.442;9.212;2022-08-18T04:39:48;8.65;;;4.00;;
70169;SDS011;57543;45.442;9.212;2022-08-18T04:42:51;9.80;;;3.50;;
70169;SDS011;57543;45.442;9.212;2022-08-18T04:45:56;7.88;;;3.75;;
70169;SDS011;57543;45.442;9.212;2022-08-18T04:49:03;7.23;;;3.50;;
70169;SDS011;57543;45.442;9.212;2022-08-18T04:52:07;7.60;;;4.07;;
70169;SDS011;57543;45.442;9.212;2022-08-18T04:55:29;10.07;;;3.97;;
70169;SDS011;57543;45.442;9.212;2022-08-18T04:58:34;12.75;;;5.15;;
70169;SDS011;57543;45.442;9.212;2022-08-18T05:01:41;10.20;;;5.10;;
70169;SDS011;57543;45.442;9.212;2022-08-18T05:04:50;9.93;;;4.13;;
70169;SDS011;57543;45.442;9.212;2022-08-18T05:07:53;6.63;;;3.78;;
70169;SDS011;57543;45.442;9.212;2022-08-18T05:10:57;7.35;;;3.85;;
70169;SDS011;57543;45.442;9.212;2022-08-18T05:14:02;9.10;;;4.03;;
70169;SDS011;57543;45.442;9.212;2022-08-18T05:17:06;7.47;;;4.05;;
70169;SDS011;57543;45.442;9.212;2022-08-18T05:20:10;9.80;;;4.50;;
70169;SDS011;57543;45.442;9.212;2022-08-18T05:23:14;10.30;;;4.72;;
70169;SDS011;57543;45.442;9.212;2022-08-18T05:26:19;12.65;;;5.70;;
70169;SDS011;57543;45.442;9.212;2022-08-18T05:29:23;13.93;;;6.90;;
70169;SDS011;57543;45.442;9.212;2022-08-18T05:32:26;13.15;;;6.10;;
70169;SDS011;57543;45.442;9.212;2022-08-18T05:35:35;15.00;;;6.97;;
70169;SDS011;57543;45.442;9.212;2022-08-18T05:42:22;17.05;;;7.65;;
70169;SDS011;57543;45.442;9.212;2022-08-18T05:45:28;19.80;;;7.80;;
70169;SDS011;57543;45.442;9.212;2022-08-18T05:48:32;15.20;;;7.13;;
70169;SDS011;57543;45.442;9.212;2022-08-18T05:51:40;13.60;;;6.70;;
70169;SDS011;57543;45.442;9.212;2022-08-18T05:54:48;16.13;;;7.40;;
70169;SDS011;57543;45.442;9.212;2022-08-18T05:58:21;13.40;;;6.72;;
70169;SDS011;57543;45.442;9.212;2022-08-18T06:01:28;14.45;;;7.00;;
70169;SDS011;57543;45.442;9.212;2022-08-18T06:04:39;13.35;;;7.25;;
70169;SDS011;57543;45.442;9.212;2022-08-18T06:07:58;15.40;;;6.07;;
70169;SDS011;57543;45.442;9.212;2022-08-18T06:11:07;10.98;;;5.20;;
70169;SDS011;57543;45.442;9.212;2022-08-18T06:14:11;10.98;;;5.53;;
70169;SDS011;57543;45.442;9.212;2022-08-18T06:17:31;11.90;;;5.82;;
70169;SDS011;57543;45.442;9.212;2022-08-18T06:24:40;10.13;;;5.37;;
70169;SDS011;57543;45.442;9.212;2022-08-18T06:27:54;11.75;;;6.65;;
70169;SDS011;57543;45.442;9.212;2022-08-18T06:31:09;12.05;;;6.13;;
70169;SDS011;57543;45.442;9.212;2022-08-18T06:37:51;11.05;;;5.65;;
70169;SDS011;57543;45.442;9.212;2022-08-18T06:41:38;12.13;;;5.97;;
70169;SDS011;57543;45.442;9.212;2022-08-18T06:44:46;13.23;;;6.45;;
70169;SDS011;57543;45.442;9.212;2022-08-18T06:47:56;13.93;;;5.97;;
70169;SDS011;57543;45.442;9.212;2022-08-18T06:51:06;10.95;;;5.38;;
70169;SDS011;57543;45.442;9.212;2022-08-18T06:54:25;12.20;;;5.18;;
70169;SDS011;57543;45.442;9.212;2022-08-18T06:57:33;11.00;;;5.83;;
70169;SDS011;57543;45.442;9.212;2022-08-18T07:00:43;13.73;;;5.50;;
70169;SDS011;57543;45.442;9.212;2022-08-18T07:03:56;8.65;;;5.35;;
70169;SDS011;57543;45.442;9.212;2022-08-18T07:07:27;9.23;;;4.88;;
70169;SDS011;57543;45.442;9.212;2022-08-18T07:10:35;8.38;;;4.57;;
70169;SDS011;57543;45.442;9.212;2022-08-18T07:17:24;10.10;;;5.07;;
70169;SDS011;57543;45.442;9.212;2022-08-18T07:20:41;10.70;;;4.90;;
70169;SDS011;57543;45.442;9.212;2022-08-18T07:24:00;9.32;;;4.68;;
70169;SDS011;57543;45.442;9.212;2022-08-18T07:27:18;10.38;;;4.25;;
70169;SDS011;57543;45.442;9.212;2022-08-18T07:30:43;11.50;;;5.20;;
70169;SDS011;57543;45.442;9.212;2022-08-18T07:37:29;11.02;;;4.97;;
70169;SDS011;57543;45.442;9.212;2022-08-18T07:40:37;11.70;;;5.32;;
70169;SDS011;57543;45.442;9.212;2022-08-18T07:47:00;8.73;;;3.90;;
70169;SDS011;57543;45.442;9.212;2022-08-18T07:50:09;11.02;;;5.03;;
70169;SDS011;57543;45.442;9.212;2022-08-18T08:06:58;9.40;;;4.88;;
70169;SDS011;57543;45.442;9.212;2022-08-18T08:10:18;17.45;;;7.45;;
70169;SDS011;57543;45.442;9.212;2022-08-18T08:13:45;12.85;;;6.68;;
70169;SDS011;57543;45.442;9.212;2022-08-18T08:23:15;16.38;;;7.78;;
70169;SDS011;57543;45.442;9.212;2022-08-18T08:30:05;13.82;;;7.78;;
70169;SDS011;57543;45.442;9.212;2022-08-18T08:33:22;12.93;;;6.45;;
70169;SDS011;57543;45.442;9.212;2022-08-18T08:36:31;14.20;;;7.93;;
70169;SDS011;57543;45.442;9.212;2022-08-18T08:39:40;14.45;;;8.50;;
70169;SDS011;57543;45.442;9.212;2022-08-18T08:42:53;18.65;;;9.40;;
70169;SDS011;57543;45.442;9.212;2022-08-18T08:49:18;15.20;;;9.25;;
70169;SDS011;57543;45.442;9.212;2022-08-18T08:56:00;18.67;;;10.27;;
70169;SDS011;57543;45.442;9.212;2022-08-18T08:59:09;22.08;;;12.07;;
70169;SDS011;57543;45.442;9.212;2022-08-18T09:02:21;18.58;;;9.40;;
70169;SDS011;57543;45.442;9.212;2022-08-18T09:05:35;19.10;;;10.35;;
70169;SDS011;57543;45.442;9.212;2022-08-18T09:12:16;18.17;;;10.07;;
70169;SDS011;57543;45.442;9.212;2022-08-18T09:27:11;16.83;;;7.70;;
70169;SDS011;57543;45.442;9.212;2022-08-18T09:33:03;13.57;;;7.95;;
70169;SDS011;57543;45.442;9.212;2022-08-18T09:39:39;17.65;;;9.10;;
70169;SDS011;57543;45.442;9.212;2022-08-18T09:43:19;13.90;;;8.00;;
70169;SDS011;57543;45.442;9.212;2022-08-18T09:49:47;19.92;;;10.85;;
70169;SDS011;57543;45.442;9.212;2022-08-18T09:52:52;18.02;;;10.98;;
70169;SDS011;57543;45.442;9.212;2022-08-18T09:55:59;19.52;;;10.70;;
70169;SDS011;57543;45.442;9.212;2022-08-18T09:59:03;21.27;;;12.03;;
70169;SDS011;57543;45.442;9.212;2022-08-18T10:02:09;23.08;;;12.70;;
70169;SDS011;57543;45.442;9.212;2022-08-18T10:05:39;25.55;;;13.93;;
70169;SDS011;57543;45.442;9.212;2022-08-18T10:09:01;26.48;;;14.55;;
70169;SDS011;57543;45.442;9.212;2022-08-18T10:15:58;30.17;;;16.03;;
70169;SDS011;57543;45.442;9.212;2022-08-18T10:22:38;24.73;;;13.00;;
70169;SDS011;57543;45.442;9.212;2022-08-18T10:25:45;22.67;;;12.23;;
70169;SDS011;57543;45.442;9.212;2022-08-18T10:34:59;19.27;;;10.85;;
70169;SDS011;57543;45.442;9.212;2022-08-18T10:38:18;17.73;;;9.75;;
70169;SDS011;57543;45.442;9.212;2022-08-18T10:41:52;16.70;;;9.18;;
70169;SDS011;57543;45.442;9.212;2022-08-18T10:45:11;19.30;;;10.35;;
70169;SDS011;57543;45.442;9.212;2022-08-18T10:48:30;17.20;;;9.03;;
70169;SDS011;57543;45.442;9.212;2022-08-18T10:51:42;20.85;;;11.27;;
70169;SDS011;57543;45.442;9.212;2022-08-18T10:58:23;18.05;;;10.05;;
70169;SDS011;57543;45.442;9.212;2022-08-18T11:01:45;17.70;;;9.75;;
70169;SDS011;57543;45.442;9.212;2022-08-18T11:05:09;17.83;;;10.10;;
70169;SDS011;57543;45.442;9.212;2022-08-18T11:08:17;20.15;;;10.07;;
70169;SDS011;57543;45.442;9.212;2022-08-18T11:11:24;16.27;;;8.25;;
70169;SDS011;57543;45.442;9.212;2022-08-18T11:14:48;18.92;;;8.98;;
70169;SDS011;57543;45.442;9.212;2022-08-18T11:24:36;14.95;;;7.55;;
70169;SDS011;57543;45.442;9.212;2022-08-18T11:27:47;11.18;;;6.50;;
70169;SDS011;57543;45.442;9.212;2022-08-18T11:30:51;11.13;;;6.38;;
70169;SDS011;57543;45.442;9.212;2022-08-18T11:33:57;12.90;;;6.28;;
70169;SDS011;57543;45.442;9.212;2022-08-18T11:37:06;9.87;;;5.30;;
70169;SDS011;57543;45.442;9.212;2022-08-18T11:40:37;11.18;;;5.90;;
70169;SDS011;57543;45.442;9.212;2022-08-18T11:43:56;12.02;;;5.30;;
70169;SDS011;57543;45.442;9.212;2022-08-18T11:47:11;8.50;;;4.40;;
70169;SDS011;57543;45.442;9.212;2022-08-18T11:50:25;9.25;;;4.53;;
70169;SDS011;57543;45.442;9.212;2022-08-18T11:53:41;11.40;;;5.10;;
70169;SDS011;57543;45.442;9.212;2022-08-18T11:56:52;8.27;;;4.80;;
70169;SDS011;57543;45.442;9.212;2022-08-18T12:00:36;12.13;;;5.90;;
70169;SDS011;57543;45.442;9.212;2022-08-18T12:03:44;9.30;;;5.22;;
70169;SDS011;57543;45.442;9.212;2022-08-18T12:10:15;11.00;;;5.50;;
70169;SDS011;57543;45.442;9.212;2022-08-18T12:13:24;10.38;;;5.85;;
70169;SDS011;57543;45.442;9.212;2022-08-18T12:16:33;10.80;;;5.88;;
70169;SDS011;57543;45.442;9.212;2022-08-18T12:19:42;13.30;;;6.15;;
70169;SDS011;57543;45.442;9.212;2022-08-18T12:22:47;8.82;;;5.25;;
70169;SDS011;57543;45.442;9.212;2022-08-18T12:25:52;9.93;;;5.00;;
70169;SDS011;57543;45.442;9.212;2022-08-18T12:28:55;11.13;;;6.15;;
70169;SDS011;57543;45.442;9.212;2022-08-18T12:31:59;10.48;;;5.40;;
70169;SDS011;57543;45.442;9.212;2022-08-18T12:35:04;8.68;;;5.03;;
70169;SDS011;57543;45.442;9.212;2022-08-18T12:38:09;8.95;;;5.30;;
70169;SDS011;57543;45.442;9.212;2022-08-18T12:41:14;9.17;;;5.03;;
70169;SDS011;57543;45.442;9.212;2022-08-18T12:44:18;9.95;;;5.43;;
70169;SDS011;57543;45.442;9.212;2022-08-18T12:47:23;9.05;;;4.95;;
70169;SDS011;57543;45.442;9.212;2022-08-18T12:50:28;8.80;;;4.72;;
70169;SDS011;57543;45.442;9.212;2022-08-18T12:53:32;9.27;;;4.78;;
70169;SDS011;57543;45.442;9.212;2022-08-18T12:56:38;7.53;;;4.33;;
70169;SDS011;57543;45.442;9.212;2022-08-18T12:59:43;9.27;;;4.30;;
70169;SDS011;57543;45.442;9.212;2022-08-18T13:02:47;11.93;;;4.65;;
70169;SDS011;57543;45.442;9.212;2022-08-18T13:05:51;10.10;;;5.43;;
70169;SDS011;57543;45.442;9.212;2022-08-18T13:08:55;6.93;;;4.10;;
70169;SDS011;57543;45.442;9.212;2022-08-18T13:11:59;6.83;;;3.63;;
70169;SDS011;57543;45.442;9.212;2022-08-18T13:15:03;6.93;;;3.65;;
70169;SDS011;57543;45.442;9.212;2022-08-18T13:18:11;7.10;;;3.45;;
70169;SDS011;57543;45.442;9.212;2022-08-18T13:21:15;5.50;;;3.40;;
70169;SDS011;57543;45.442;9.212;2022-08-18T13:24:20;7.80;;;3.60;;
70169;SDS011;57543;45.442;9.212;2022-08-18T13:27:24;6.37;;;3.83;;
70169;SDS011;57543;45.442;9.212;2022-08-18T13:30:28;10.45;;;4.13;;
70169;SDS011;57543;45.442;9.212;2022-08-18T13:33:32;6.95;;;3.50;;
70169;SDS011;57543;45.442;9.212;2022-08-18T13:36:36;8.63;;;4.03;;
70169;SDS011;57543;45.442;9.212;2022-08-18T13:39:50;7.07;;;3.50;;
70169;SDS011;57543;45.442;9.212;2022-08-18T13:42:53;8.13;;;3.33;;
70169;SDS011;57543;45.442;9.212;2022-08-18T13:45:57;5.95;;;3.00;;
70169;SDS011;57543;45.442;9.212;2022-08-18T13:49:02;5.57;;;3.03;;
70169;SDS011;57543;45.442;9.212;2022-08-18T13:52:05;5.38;;;2.80;;
70169;SDS011;57543;45.442;9.212;2022-08-18T13:55:14;5.00;;;2.30;;
70169;SDS011;57543;45.442;9.212;2022-08-18T13:58:19;6.37;;;2.97;;
70169;SDS011;57543;45.442;9.212;2022-08-18T14:01:23;5.28;;;2.88;;
70169;SDS011;57543;45.442;9.212;2022-08-18T14:04:27;6.65;;;3.10;;
70169;SDS011;57543;45.442;9.212;2022-08-18T14:07:31;5.28;;;3.17;;
70169;SDS011;57543;45.442;9.212;2022-08-18T14:10:35;5.38;;;2.65;;
70169;SDS011;57543;45.442;9.212;2022-08-18T14:13:38;7.23;;;3.30;;
70169;SDS011;57543;45.442;9.212;2022-08-18T14:16:41;5.03;;;2.78;;
70169;SDS011;57543;45.442;9.212;2022-08-18T14:19:45;5.60;;;2.50;;
70169;SDS011;57543;45.442;9.212;2022-08-18T14:23:07;4.80;;;2.45;;
70169;SDS011;57543;45.442;9.212;2022-08-18T14:26:30;5.18;;;2.28;;
70169;SDS011;57543;45.442;9.212;2022-08-18T14:29:50;4.63;;;2.37;;
70169;SDS011;57543;45.442;9.212;2022-08-18T14:32:54;5.60;;;2.65;;
70169;SDS011;57543;45.442;9.212;2022-08-18T14:35:58;5.00;;;2.50;;
70169;SDS011;57543;45.442;9.212;2022-08-18T14:39:02;5.25;;;2.38;;
70169;SDS011;57543;45.442;9.212;2022-08-18T14:42:06;5.38;;;2.65;;
70169;SDS011;57543;45.442;9.212;2022-08-18T14:45:10;6.63;;;3.60;;
70169;SDS011;57543;45.442;9.212;2022-08-18T14:48:18;7.80;;;3.10;;
70169;SDS011;57543;45.442;9.212;2022-08-18T14:51:24;5.13;;;2.80;;
70169;SDS011;57543;45.442;9.212;2022-08-18T14:54:29;5.25;;;3.08;;
70169;SDS011;57543;45.442;9.212;2022-08-18T14:57:33;4.95;;;2.60;;
70169;SDS011;57543;45.442;9.212;2022-08-18T15:00:36;6.13;;;2.63;;
70169;SDS011;57543;45.442;9.212;2022-08-18T15:03:41;5.13;;;2.42;;
70169;SDS011;57543;45.442;9.212;2022-08-18T15:06:45;6.03;;;2.65;;
70169;SDS011;57543;45.442;9.212;2022-08-18T15:09:49;5.53;;;2.22;;
70169;SDS011;57543;45.442;9.212;2022-08-18T15:12:52;4.43;;;2.25;;
70169;SDS011;57543;45.442;9.212;2022-08-18T15:15:57;4.93;;;2.37;;
70169;SDS011;57543;45.442;9.212;2022-08-18T15:19:02;2.97;;;1.30;;
70169;SDS011;57543;45.442;9.212;2022-08-18T15:22:05;3.10;;;1.33;;
70169;SDS011;57543;45.442;9.212;2022-08-18T15:25:28;3.80;;;1.42;;
70169;SDS011;57543;45.442;9.212;2022-08-18T15:28:44;5.47;;;2.42;;
70169;SDS011;57543;45.442;9.212;2022-08-18T15:31:48;5.43;;;1.97;;
70169;SDS011;57543;45.442;9.212;2022-08-18T15:34:52;6.97;;;2.08;;
70169;SDS011;57543;45.442;9.212;2022-08-18T15:37:56;5.90;;;1.90;;
70169;SDS011;57543;45.442;9.212;2022-08-18T15:41:00;7.22;;;1.88;;
70169;SDS011;57543;45.442;9.212;2022-08-18T15:44:05;4.50;;;1.38;;
70169;SDS011;57543;45.442;9.212;2022-08-18T15:47:10;2.90;;;1.17;;
70169;SDS011;57543;45.442;9.212;2022-08-18T15:50:14;3.25;;;1.13;;
70169;SDS011;57543;45.442;9.212;2022-08-18T15:53:19;3.92;;;1.10;;
70169;SDS011;57543;45.442;9.212;2022-08-18T15:56:25;4.38;;;0.93;;
70169;SDS011;57543;45.442;9.212;2022-08-18T15:59:30;4.35;;;1.13;;
70169;SDS011;57543;45.442;9.212;2022-08-18T16:02:33;3.70;;;1.20;;
70169;SDS011;57543;45.442;9.212;2022-08-18T16:05:38;4.38;;;1.30;;
70169;SDS011;57543;45.442;9.212;2022-08-18T16:08:43;5.95;;;1.30;;
70169;SDS011;57543;45.442;9.212;2022-08-18T16:11:47;3.90;;;1.20;;
70169;SDS011;57543;45.442;9.212;2022-08-18T16:14:51;3.83;;;1.33;;
70169;SDS011;57543;45.442;9.212;2022-08-18T16:17:55;3.47;;;1.30;;
70169;SDS011;57543;45.442;9.212;2022-08-18T16:21:08;3.70;;;1.48;;
70169;SDS011;57543;45.442;9.212;2022-08-18T16:24:14;5.00;;;1.48;;
70169;SDS011;57543;45.442;9.212;2022-08-18T16:27:17;4.32;;;1.60;;
70169;SDS011;57543;45.442;9.212;2022-08-18T16:30:23;3.70;;;1.17;;
70169;SDS011;57543;45.442;9.212;2022-08-18T16:33:29;4.00;;;1.30;;
70169;SDS011;57543;45.442;9.212;2022-08-18T16:36:33;4.50;;;1.27;;
70169;SDS011;57543;45.442;9.212;2022-08-18T16:39:37;4.40;;;1.48;;
70169;SDS011;57543;45.442;9.212;2022-08-18T16:42:41;3.83;;;1.50;;
70169;SDS011;57543;45.442;9.212;2022-08-18T16:45:45;3.85;;;1.67;;
70169;SDS011;57543;45.442;9.212;2022-08-18T16:48:49;4.13;;;1.70;;
70169;SDS011;57543;45.442;9.212;2022-08-18T16:51:53;3.88;;;1.60;;
70169;SDS011;57543;45.442;9.212;2022-08-18T16:54:57;4.95;;;1.48;;
70169;SDS011;57543;45.442;9.212;2022-08-18T16:58:03;4.55;;;1.70;;
70169;SDS011;57543;45.442;9.212;2022-08-18T17:01:25;3.70;;;1.10;;
70169;SDS011;57543;45.442;9.212;2022-08-18T17:04:47;3.67;;;1.17;;
70169;SDS011;57543;45.442;9.212;2022-08-18T17:07:53;2.88;;;1.13;;
70169;SDS011;57543;45.442;9.212;2022-08-18T17:10:57;3.60;;;1.30;;
70169;SDS011;57543;45.442;9.212;2022-08-18T17:14:00;4.45;;;1.50;;
70169;SDS011;57543;45.442;9.212;2022-08-18T17:17:04;4.78;;;1.50;;
70169;SDS011;57543;45.442;9.212;2022-08-18T17:20:09;3.90;;;1.20;;
70169;SDS011;57543;45.442;9.212;2022-08-18T17:23:14;3.13;;;1.40;;
70169;SDS011;57543;45.442;9.212;2022-08-18T17:26:27;3.20;;;1.30;;
70169;SDS011;57543;45.442;9.212;2022-08-18T17:33:11;4.18;;;1.80;;
70169;SDS011;57543;45.442;9.212;2022-08-18T17:36:20;5.50;;;2.07;;
70169;SDS011;57543;45.442;9.212;2022-08-18T17:39:33;3.22;;;1.50;;
70169;SDS011;57543;45.442;9.212;2022-08-18T17:42:43;4.15;;;1.50;;
70169;SDS011;57543;45.442;9.212;2022-08-18T17:46:11;3.85;;;1.70;;
70169;SDS011;57543;45.442;9.212;2022-08-18T17:49:21;3.20;;;1.35;;
70169;SDS011;57543;45.442;9.212;2022-08-18T17:52:52;3.87;;;1.30;;
70169;SDS011;57543;45.442;9.212;2022-08-18T17:56:06;3.85;;;1.30;;
70169;SDS011;57543;45.442;9.212;2022-08-18T17:59:21;4.75;;;1.52;;
70169;SDS011;57543;45.442;9.212;2022-08-18T18:02:30;4.85;;;1.50;;
70169;SDS011;57543;45.442;9.212;2022-08-18T18:05:36;4.70;;;1.50;;
70169;SDS011;57543;45.442;9.212;2022-08-18T18:08:48;6.50;;;1.63;;
70169;SDS011;57543;45.442;9.212;2022-08-18T18:11:53;3.35;;;1.40;;
70169;SDS011;57543;45.442;9.212;2022-08-18T18:14:57;4.22;;;1.73;;
70169;SDS011;57543;45.442;9.212;2022-08-18T18:21:25;4.15;;;1.83;;
70169;SDS011;57543;45.442;9.212;2022-08-18T18:24:30;5.13;;;2.00;;
70169;SDS011;57543;45.442;9.212;2022-08-18T18:30:42;4.15;;;1.65;;
70169;SDS011;57543;45.442;9.212;2022-08-18T18:33:46;4.72;;;2.00;;
70169;SDS011;57543;45.442;9.212;2022-08-18T18:37:00;6.38;;;1.90;;
70169;SDS011;57543;45.442;9.212;2022-08-18T18:40:06;5.83;;;1.80;;
70169;SDS011;57543;45.442;9.212;2022-08-18T18:43:21;5.18;;;2.20;;
70169;SDS011;57543;45.442;9.212;2022-08-18T18:46:28;3.80;;;1.70;;
70169;SDS011;57543;45.442;9.212;2022-08-18T18:49:44;5.95;;;1.98;;
70169;SDS011;57543;45.442;9.212;2022-08-18T19:03:06;6.35;;;2.20;;
70169;SDS011;57543;45.442;9.212;2022-08-18T19:06:20;6.97;;;1.75;;
70169;SDS011;57543;45.442;9.212;2022-08-18T19:12:55;4.93;;;1.80;;
70169;SDS011;57543;45.442;9.212;2022-08-18T19:16:08;5.70;;;1.73;;
70169;SDS011;57543;45.442;9.212;2022-08-18T19:19:18;5.35;;;1.70;;
70169;SDS011;57543;45.442;9.212;2022-08-18T19:22:45;3.83;;;1.50;;
70169;SDS011;57543;45.442;9.212;2022-08-18T19:25:57;4.72;;;1.83;;
70169;SDS011;57543;45.442;9.212;2022-08-18T19:29:04;4.20;;;1.70;;
70169;SDS011;57543;45.442;9.212;2022-08-18T19:32:15;6.50;;;1.77;;
70169;SDS011;57543;45.442;9.212;2022-08-18T19:39:09;5.05;;;1.98;;
70169;SDS011;57543;45.442;9.212;2022-08-18T19:42:39;5.03;;;1.88;;
70169;SDS011;57543;45.442;9.212;2022-08-18T19:48:51;4.28;;;1.88;;
70169;SDS011;57543;45.442;9.212;2022-08-18T19:52:07;5.63;;;1.80;;
70169;SDS011;57543;45.442;9.212;2022-08-18T19:59:22;6.25;;;2.08;;
70169;SDS011;57543;45.442;9.212;2022-08-18T20:06:17;4.95;;;1.90;;
70169;SDS011;57543;45.442;9.212;2022-08-18T20:16:35;4.82;;;1.90;;
70169;SDS011;57543;45.442;9.212;2022-08-18T20:20:26;4.43;;;1.80;;
70169;SDS011;57543;45.442;9.212;2022-08-18T20:23:27;6.05;;;2.05;;
70169;SDS011;57543;45.442;9.212;2022-08-18T20:29:44;4.10;;;1.60;;
70169;SDS011;57543;45.442;9.212;2022-08-18T20:33:10;4.70;;;2.00;;
70169;SDS011;57543;45.442;9.212;2022-08-18T20:36:21;5.43;;;2.20;;
70169;SDS011;57543;45.442;9.212;2022-08-18T20:42:43;4.63;;;2.00;;
70169;SDS011;57543;45.442;9.212;2022-08-18T20:45:50;5.93;;;2.17;;
70169;SDS011;57543;45.442;9.212;2022-08-18T20:59:12;4.82;;;2.10;;
70169;SDS011;57543;45.442;9.212;2022-08-18T21:02:28;4.68;;;2.00;;
70169;SDS011;57543;45.442;9.212;2022-08-18T21:05:34;6.38;;;2.08;;
70169;SDS011;57543;45.442;9.212;2022-08-18T21:08:44;4.93;;;2.00;;
70169;SDS011;57543;45.442;9.212;2022-08-18T21:11:50;4.75;;;2.10;;
70169;SDS011;57543;45.442;9.212;2022-08-18T21:14:54;4.00;;;1.77;;
70169;SDS011;57543;45.442;9.212;2022-08-18T21:18:03;6.13;;;2.13;;
70169;SDS011;57543;45.442;9.212;2022-08-18T21:21:12;5.55;;;2.38;;
70169;SDS011;57543;45.442;9.212;2022-08-18T21:27:32;5.03;;;2.17;;
70169;SDS011;57543;45.442;9.212;2022-08-18T21:30:38;4.15;;;2.00;;
70169;SDS011;57543;45.442;9.212;2022-08-18T21:33:46;5.90;;;2.10;;
70169;SDS011;57543;45.442;9.212;2022-08-18T21:36:53;6.72;;;2.50;;
70169;SDS011;57543;45.442;9.212;2022-08-18T21:39:59;5.43;;;2.40;;